createdAt,value
2018-06-22T00:02:12.988Z,99.90
2018-06-22T00:04:41.643Z,99.90
2018-06-22T00:07:09.987Z,99.90
2018-06-22T00:09:39.076Z,99.90
2018-06-22T00:12:07.452Z,99.90
2018-06-22T00:14:35.808Z,99.90
2018-06-22T00:17:04.350Z,99.90
2018-06-22T00:19:32.852Z,99.90
2018-06-22T00:22:01.188Z,99.90
2018-06-22T00:24:29.572Z,99.90
2018-06-22T00:26:58.027Z,99.90
2018-06-22T00:29:26.388Z,99.90
2018-06-22T00:31:54.970Z,99.90
2018-06-22T00:34:23.372Z,99.90
2018-06-22T00:36:51.837Z,99.90
2018-06-22T00:39:20.348Z,99.90
2018-06-22T00:41:48.724Z,99.90
2018-06-22T00:44:17.080Z,99.90
2018-06-22T00:46:45.672Z,99.90
2018-06-22T00:49:14.033Z,99.90
2018-06-22T00:51:42.397Z,99.90
2018-06-22T00:54:12.855Z,99.90
2018-06-22T00:56:41.320Z,99.90
2018-06-22T00:59:10.036Z,99.90
2018-06-22T01:01:39.412Z,99.90
2018-06-22T01:04:08.137Z,99.90
2018-06-22T01:06:36.609Z,99.90
2018-06-22T01:09:07.935Z,99.90
2018-06-22T01:11:36.296Z,99.90
2018-06-22T01:14:04.852Z,99.90
2018-06-22T01:16:33.567Z,99.90
2018-06-22T01:19:01.980Z,99.90
2018-06-22T01:21:30.378Z,99.90
2018-06-22T01:23:58.883Z,99.90
2018-06-22T01:29:59.876Z,99.90
2018-06-22T01:32:28.348Z,99.90
2018-06-22T01:34:56.894Z,99.90
2018-06-22T01:37:25.480Z,99.90
2018-06-22T01:39:53.966Z,99.90
2018-06-22T01:42:22.353Z,99.90
2018-06-22T01:44:50.964Z,99.90
2018-06-22T01:47:19.317Z,99.90
2018-06-22T01:49:47.703Z,99.90
2018-06-22T01:52:16.340Z,99.90
2018-06-22T01:54:44.715Z,99.90
2018-06-22T01:57:13.994Z,99.90
2018-06-22T01:59:42.644Z,99.90
2018-06-22T02:02:11.004Z,99.90
2018-06-22T02:04:39.364Z,99.90
2018-06-22T02:07:08.041Z,99.90
2018-06-22T02:09:36.436Z,99.90
2018-06-22T02:12:04.800Z,99.90
2018-06-22T02:14:33.352Z,99.90
2018-06-22T02:19:29.783Z,99.90
2018-06-22T02:21:58.356Z,99.90
2018-06-22T02:24:26.701Z,99.90
2018-06-22T02:26:55.073Z,99.90
2018-06-22T02:29:23.658Z,99.90
2018-06-22T02:31:52.118Z,99.90
2018-06-22T02:34:20.610Z,99.90
2018-06-22T02:36:49.208Z,99.90
2018-06-22T02:39:17.596Z,99.90
2018-06-22T02:41:45.986Z,99.90
2018-06-22T02:44:14.583Z,99.90
2018-06-22T02:46:42.948Z,99.90
2018-06-22T02:51:39.482Z,99.90
2018-06-22T02:54:07.914Z,99.90
2018-06-22T02:56:36.360Z,99.90
2018-06-22T02:59:05.008Z,99.90
2018-06-22T03:01:33.382Z,99.90
2018-06-22T03:04:01.920Z,99.90
2018-06-22T03:06:30.629Z,99.90
2018-06-22T03:08:59.013Z,99.90
2018-06-22T03:11:27.420Z,99.90
2018-06-22T03:13:56.095Z,99.90
2018-06-22T03:16:24.577Z,99.90
2018-06-22T03:18:52.949Z,99.90
2018-06-22T03:21:21.584Z,99.90
2018-06-22T03:23:50.077Z,99.90
2018-06-22T03:26:18.441Z,99.90
2018-06-22T03:28:46.945Z,99.90
2018-06-22T03:31:15.362Z,99.90
2018-06-22T03:33:44.537Z,99.90
2018-06-22T03:36:13.128Z,99.90
2018-06-22T03:38:41.501Z,99.90
2018-06-22T03:41:09.881Z,99.90
2018-06-22T03:43:38.295Z,99.90
2018-06-22T03:46:06.701Z,99.90
2018-06-22T03:48:35.057Z,99.90
2018-06-22T03:51:03.614Z,99.90
2018-06-22T03:53:31.997Z,99.90
2018-06-22T03:56:00.367Z,99.90
2018-06-22T03:58:28.959Z,99.90
2018-06-22T04:00:57.320Z,99.90
2018-06-22T04:03:26.678Z,99.90
2018-06-22T04:05:55.365Z,99.90
2018-06-22T04:08:23.888Z,99.90
2018-06-22T04:10:52.235Z,99.90
2018-06-22T04:13:20.869Z,99.90
2018-06-22T04:15:49.447Z,99.90
2018-06-22T04:18:17.849Z,99.90
2018-06-22T04:20:46.280Z,99.90
2018-06-22T04:23:14.873Z,99.90
2018-06-22T04:28:12.548Z,99.90
2018-06-22T04:30:40.924Z,99.90
2018-06-22T04:33:09.278Z,99.90
2018-06-22T04:35:38.001Z,99.90
2018-06-22T04:38:06.544Z,99.90
2018-06-22T04:40:34.918Z,99.90
2018-06-22T04:43:03.585Z,99.90
2018-06-22T04:45:32.013Z,99.90
2018-06-22T04:48:00.440Z,99.90
2018-06-22T04:50:29.071Z,99.90
2018-06-22T04:52:57.643Z,99.90
2018-06-22T04:55:26.074Z,99.90
2018-06-22T04:57:54.761Z,99.90
2018-06-22T05:00:23.125Z,99.90
2018-06-22T05:02:51.511Z,99.90
2018-06-22T05:05:20.125Z,99.90
2018-06-22T05:07:48.509Z,99.90
2018-06-22T05:10:16.895Z,99.90
2018-06-22T05:12:46.309Z,99.90
2018-06-22T05:15:15.006Z,99.90
2018-06-22T05:17:43.416Z,99.90
2018-06-22T05:20:12.101Z,99.90
2018-06-22T05:22:40.545Z,99.90
2018-06-22T05:25:08.925Z,99.90
2018-06-22T05:27:38.197Z,99.90
2018-06-22T05:30:07.491Z,99.90
2018-06-22T05:32:36.224Z,99.90
2018-06-22T05:35:05.173Z,99.90
2018-06-22T05:37:33.561Z,99.90
2018-06-22T05:40:02.009Z,99.90
2018-06-22T05:42:30.548Z,99.90
2018-06-22T05:44:58.932Z,99.90
2018-06-22T05:47:27.338Z,99.90
2018-06-22T05:49:55.768Z,99.90
2018-06-22T05:52:24.143Z,99.90
2018-06-22T05:54:52.543Z,99.90
2018-06-22T05:57:21.141Z,99.90
2018-06-22T05:59:49.559Z,99.90
2018-06-22T06:02:17.952Z,99.90
2018-06-22T06:04:46.361Z,99.90
2018-06-22T06:07:15.229Z,99.90
2018-06-22T06:09:43.702Z,99.90
2018-06-22T06:12:12.380Z,99.90
2018-06-22T06:14:40.749Z,99.90
2018-06-22T06:17:09.109Z,99.90
2018-06-22T06:19:37.669Z,99.90
2018-06-22T06:22:06.009Z,99.90
2018-06-22T06:24:34.900Z,99.90
2018-06-22T06:27:03.460Z,99.90
2018-06-22T06:29:31.868Z,99.90
2018-06-22T06:32:00.300Z,99.90
2018-06-22T06:34:28.824Z,99.90
2018-06-22T06:39:25.525Z,99.90
2018-06-22T06:41:54.173Z,99.90
2018-06-22T06:44:22.513Z,99.90
2018-06-22T06:46:50.941Z,99.90
2018-06-22T06:49:19.469Z,99.90
2018-06-22T06:51:47.913Z,99.90
2018-06-22T06:54:16.284Z,99.90
2018-06-22T06:56:45.633Z,99.90
2018-06-22T06:59:14.140Z,99.90
2018-06-22T07:01:42.501Z,99.90
2018-06-22T07:04:11.080Z,99.90
2018-06-22T07:06:39.432Z,99.90
2018-06-22T07:09:08.553Z,99.90
2018-06-22T07:11:37.165Z,99.90
2018-06-22T07:14:05.649Z,99.90
2018-06-22T07:16:34.032Z,99.90
2018-06-22T07:19:02.461Z,99.90
2018-06-22T07:21:30.824Z,99.90
2018-06-22T07:23:59.205Z,99.90
2018-06-22T07:26:27.775Z,99.90
2018-06-22T07:28:56.134Z,99.90
2018-06-22T07:31:24.524Z,99.90
2018-06-22T07:33:53.085Z,99.90
2018-06-22T07:36:21.456Z,99.90
2018-06-22T07:38:49.832Z,99.90
2018-06-22T07:41:18.445Z,99.90
2018-06-22T07:43:46.901Z,99.90
2018-06-22T07:46:15.702Z,99.90
2018-06-22T07:48:44.133Z,99.90
2018-06-22T07:51:12.501Z,99.90
2018-06-22T07:53:40.888Z,99.90
2018-06-22T07:56:09.481Z,99.90
2018-06-22T07:58:37.892Z,99.90
2018-06-22T08:01:06.382Z,99.90
2018-06-22T08:03:34.857Z,99.90
2018-06-22T08:06:03.229Z,99.90
2018-06-22T08:08:31.633Z,99.90
2018-06-22T08:11:00.365Z,99.90
2018-06-22T08:13:28.874Z,99.90
2018-06-22T08:15:57.365Z,99.90
2018-06-22T08:18:25.837Z,99.90
2018-06-22T08:20:54.169Z,99.90
2018-06-22T08:23:22.614Z,99.90
2018-06-22T08:25:51.185Z,99.90
2018-06-22T08:28:19.553Z,99.90
2018-06-22T08:30:47.937Z,99.90
2018-06-22T08:33:16.536Z,99.90
2018-06-22T08:35:45.812Z,99.90
2018-06-22T08:38:14.165Z,99.90
2018-06-22T08:40:42.702Z,99.90
2018-06-22T08:43:11.061Z,99.90
2018-06-22T08:45:39.521Z,99.90
2018-06-22T08:48:08.100Z,99.90
2018-06-22T08:50:36.472Z,99.90
2018-06-22T08:53:04.849Z,99.90
2018-06-22T08:58:01.609Z,99.90
2018-06-22T09:05:26.425Z,99.90
2018-06-22T09:07:54.835Z,99.90
2018-06-22T09:10:23.417Z,99.90
2018-06-22T09:12:51.794Z,99.90
2018-06-22T09:15:20.193Z,99.90
2018-06-22T09:17:48.755Z,99.90
2018-06-22T09:20:17.114Z,99.90
2018-06-22T09:22:46.055Z,99.90
2018-06-22T09:25:14.691Z,99.90
2018-06-22T09:27:43.052Z,99.90
2018-06-22T09:30:11.449Z,99.90
2018-06-22T09:32:39.970Z,99.90
2018-06-22T09:35:08.783Z,99.90
2018-06-22T09:37:37.960Z,99.90
2018-06-22T09:40:06.500Z,99.90
2018-06-22T09:42:34.873Z,99.90
2018-06-22T09:45:03.269Z,99.90
2018-06-22T09:47:31.916Z,98.30
2018-06-22T09:50:00.341Z,98.50
2018-06-22T09:52:28.738Z,98.70
2018-06-22T09:54:57.185Z,99.30
2018-06-22T09:57:25.597Z,99.90
2018-06-22T09:59:54.025Z,99.20
2018-06-22T10:02:22.581Z,98.00
2018-06-22T10:04:50.971Z,98.50
2018-06-22T10:07:19.344Z,97.50
2018-06-22T10:09:48.512Z,95.30
2018-06-22T10:12:16.973Z,95.20
2018-06-22T10:14:45.328Z,93.80
2018-06-22T10:19:41.865Z,93.70
2018-06-22T10:22:10.212Z,93.70
2018-06-22T10:24:38.636Z,95.10
2018-06-22T10:27:07.049Z,95.00
2018-06-22T10:29:35.394Z,93.80
2018-06-22T10:32:03.992Z,91.70
2018-06-22T10:34:32.400Z,92.30
2018-06-22T10:37:00.876Z,91.70
2018-06-22T10:39:29.560Z,91.70
2018-06-22T10:41:57.948Z,91.90
2018-06-22T10:44:26.460Z,92.20
2018-06-22T10:46:55.137Z,91.20
2018-06-22T10:49:23.580Z,91.80
2018-06-22T10:51:52.129Z,90.00
2018-06-22T10:54:20.573Z,89.50
2018-06-22T10:56:49.194Z,88.60
2018-06-22T10:59:18.524Z,90.20
2018-06-22T11:01:47.269Z,92.60
2018-06-22T11:04:15.649Z,90.70
2018-06-22T11:06:44.028Z,91.10
2018-06-22T11:09:12.921Z,90.50
2018-06-22T11:11:41.584Z,88.00
2018-06-22T11:16:38.210Z,86.50
2018-06-22T11:19:06.648Z,88.20
2018-06-22T11:24:03.682Z,89.20
2018-06-22T11:26:32.100Z,84.30
2018-06-22T11:29:00.465Z,82.80
2018-06-22T11:31:29.034Z,84.10
2018-06-22T11:33:57.602Z,84.10
2018-06-22T11:36:26.106Z,86.40
2018-06-22T11:38:54.644Z,87.60
2018-06-22T11:41:23.061Z,88.80
2018-06-22T11:43:51.442Z,90.80
2018-06-22T11:46:19.876Z,91.20
2018-06-22T11:48:48.664Z,88.40
2018-06-22T11:53:45.391Z,90.50
2018-06-22T11:56:13.794Z,90.80
2018-06-22T11:58:42.181Z,89.70
2018-06-22T12:01:10.665Z,90.80
2018-06-22T12:03:39.045Z,90.00
2018-06-22T12:06:07.533Z,89.10
2018-06-22T12:08:36.133Z,87.20
2018-06-22T12:11:04.597Z,86.50
2018-06-22T12:13:32.983Z,88.70
2018-06-22T12:16:01.518Z,85.70
2018-06-22T12:18:29.889Z,86.60
2018-06-22T12:20:58.265Z,88.90
2018-06-22T12:23:26.820Z,87.80
2018-06-22T12:25:55.180Z,89.40
2018-06-22T12:28:23.557Z,89.40
2018-06-22T12:30:51.985Z,90.50
2018-06-22T12:33:20.405Z,90.10
2018-06-22T12:35:48.909Z,90.60
2018-06-22T12:38:17.635Z,87.80
2018-06-22T12:40:46.068Z,87.60
2018-06-22T12:43:14.457Z,89.00
2018-06-22T12:45:43.118Z,90.20
2018-06-22T12:48:12.121Z,90.30
2018-06-22T12:50:40.661Z,91.60
2018-06-22T12:53:09.317Z,90.90
2018-06-22T12:55:37.968Z,91.20
2018-06-22T12:58:06.448Z,90.70
2018-06-22T13:00:35.145Z,90.50
2018-06-22T13:03:03.585Z,91.60
2018-06-22T13:05:32.018Z,88.90
2018-06-22T13:08:00.680Z,90.00
2018-06-22T13:10:29.140Z,90.40
2018-06-22T13:12:57.548Z,89.10
2018-06-22T13:15:26.185Z,86.80
2018-06-22T13:17:54.700Z,83.40
2018-06-22T13:20:23.230Z,82.90
2018-06-22T13:22:51.804Z,84.20
2018-06-22T13:25:20.168Z,86.10
2018-06-22T13:27:49.272Z,88.30
2018-06-22T13:30:17.832Z,90.50
2018-06-22T13:32:46.209Z,89.10
2018-06-22T13:35:14.587Z,90.00
2018-06-22T13:40:11.230Z,87.60
2018-06-22T13:42:39.665Z,87.00
2018-06-22T13:45:08.164Z,87.00
2018-06-22T13:47:36.550Z,90.00
2018-06-22T13:52:33.197Z,91.70
2018-06-22T13:55:01.612Z,92.60
2018-06-22T13:59:58.433Z,95.10
2018-06-22T14:02:26.801Z,95.80
2018-06-22T14:05:00.793Z,96.50
2018-06-22T14:07:29.185Z,96.00
2018-06-22T14:09:57.624Z,94.60
2018-06-22T14:12:26.218Z,94.00
2018-06-22T14:14:54.601Z,92.90
2018-06-22T14:17:23.005Z,92.70
2018-06-22T14:19:51.603Z,91.20
2018-06-22T14:22:20.093Z,91.60
2018-06-22T14:24:49.573Z,91.30
2018-06-22T14:27:18.100Z,91.90
2018-06-22T14:29:46.509Z,92.70
2018-06-22T14:32:14.885Z,92.20
2018-06-22T14:34:43.285Z,90.50
2018-06-22T14:37:11.705Z,89.30
2018-06-22T14:39:40.178Z,89.60
2018-06-22T14:42:08.578Z,89.90
2018-06-22T14:44:37.051Z,90.60
2018-06-22T14:47:05.497Z,90.00
2018-06-22T14:49:34.258Z,89.60
2018-06-22T14:52:03.202Z,90.00
2018-06-22T14:54:37.101Z,90.00
2018-06-22T14:57:11.036Z,89.60
2018-06-22T14:59:45.010Z,90.10
2018-06-22T15:02:18.788Z,90.60
2018-06-22T15:04:52.748Z,91.80
2018-06-22T15:07:26.428Z,91.90
2018-06-22T15:09:54.937Z,92.00
2018-06-22T15:12:23.436Z,93.00
2018-06-22T15:14:51.816Z,93.40
2018-06-22T15:17:20.429Z,94.20
2018-06-22T15:19:48.820Z,95.30
2018-06-22T15:22:17.290Z,95.90
2018-06-22T15:24:45.845Z,98.10
2018-06-22T15:27:14.272Z,99.10
2018-06-22T15:29:42.685Z,99.10
2018-06-22T15:32:11.352Z,99.30
2018-06-22T15:34:45.216Z,99.80
2018-06-22T15:37:19.272Z,98.30
2018-06-22T15:39:53.121Z,96.60
2018-06-22T15:42:27.183Z,97.70
2018-06-22T15:45:00.728Z,95.10
2018-06-22T15:47:34.809Z,94.30
2018-06-22T15:50:08.822Z,94.00
2018-06-22T15:52:42.748Z,93.00
2018-06-22T15:55:14.013Z,92.70
2018-06-22T15:57:42.586Z,93.30
2018-06-22T16:00:12.208Z,93.40
2018-06-22T16:02:46.263Z,93.00
2018-06-22T16:05:14.729Z,93.00
2018-06-22T16:07:45.696Z,93.60
2018-06-22T16:10:14.177Z,95.10
2018-06-22T16:12:42.741Z,96.60
2018-06-22T16:15:18.672Z,98.40
2018-06-22T16:17:53.349Z,99.80
2018-06-22T16:20:27.412Z,99.90
2018-06-22T16:23:01.377Z,99.90
2018-06-22T16:25:35.332Z,99.90
2018-06-22T16:28:04.846Z,99.90
2018-06-22T16:30:33.323Z,99.90
2018-06-22T16:33:02.174Z,99.90
2018-06-22T16:35:30.639Z,99.90
2018-06-22T16:38:00.160Z,99.90
2018-06-22T16:40:28.998Z,99.90
2018-06-22T16:42:57.416Z,99.90
2018-06-22T16:45:26.017Z,99.90
2018-06-22T16:47:54.493Z,99.90
2018-06-22T16:50:22.884Z,99.90
2018-06-22T16:52:51.423Z,99.90
2018-06-22T16:55:20.972Z,99.90
2018-06-22T16:57:49.213Z,99.90
2018-06-22T17:00:17.652Z,99.90
2018-06-22T17:02:46.139Z,99.90
2018-06-22T17:05:14.708Z,99.90
2018-06-22T17:07:48.576Z,99.90
2018-06-22T17:10:22.389Z,99.90
2018-06-22T17:15:00.231Z,99.90
2018-06-22T17:17:34.109Z,99.90
2018-06-22T17:20:02.748Z,99.90
2018-06-22T17:22:31.510Z,99.90
2018-06-22T17:24:59.988Z,99.90
2018-06-22T17:27:28.623Z,99.90
2018-06-22T17:29:57.115Z,99.90
2018-06-22T17:32:25.517Z,99.90
2018-06-22T17:34:54.061Z,99.90
2018-06-22T17:37:22.509Z,99.90
2018-06-22T17:39:50.928Z,99.90
2018-06-22T17:42:19.754Z,99.90
2018-06-22T17:44:48.172Z,99.90
2018-06-22T17:47:16.613Z,99.90
2018-06-22T17:49:45.302Z,99.90
2018-06-22T17:52:13.696Z,99.90
2018-06-22T17:54:42.076Z,99.90
2018-06-22T17:57:10.741Z,99.90
2018-06-22T18:02:18.173Z,99.90
2018-06-22T18:04:50.928Z,99.90
2018-06-22T18:07:24.962Z,99.90
2018-06-22T18:09:58.735Z,99.90
2018-06-22T18:12:32.856Z,99.90
2018-06-22T18:15:01.364Z,99.90
2018-06-22T18:17:29.815Z,99.90
2018-06-22T18:19:58.578Z,99.90
2018-06-22T18:22:26.968Z,99.90
2018-06-22T18:24:55.370Z,99.90
2018-06-22T18:27:24.095Z,99.90
2018-06-22T18:29:52.511Z,99.90
2018-06-22T18:32:20.993Z,99.90
2018-06-22T18:34:49.644Z,99.90
2018-06-22T18:37:18.125Z,99.90
2018-06-22T18:39:46.524Z,99.90
2018-06-22T18:42:15.146Z,99.90
2018-06-22T18:44:43.597Z,99.90
2018-06-22T18:47:12.282Z,99.90
2018-06-22T18:49:40.777Z,99.90
2018-06-22T18:52:14.577Z,99.90
2018-06-22T18:54:48.633Z,99.90
2018-06-22T18:59:26.672Z,99.90
2018-06-22T19:02:00.725Z,99.90
2018-06-22T19:04:29.349Z,99.90
2018-06-22T19:06:57.756Z,99.90
2018-06-22T19:09:26.241Z,99.90
2018-06-22T19:11:54.772Z,99.90
2018-06-22T19:14:23.316Z,99.90
2018-06-22T19:16:52.009Z,99.90
2018-06-22T19:21:49.121Z,99.90
2018-06-22T19:24:18.480Z,99.90
2018-06-22T19:26:47.037Z,99.90
2018-06-22T19:29:15.395Z,99.90
2018-06-22T19:31:44.163Z,99.90
2018-06-22T19:34:12.577Z,99.90
2018-06-22T19:36:41.008Z,99.90
2018-06-22T19:39:10.724Z,99.90
2018-06-22T19:41:39.792Z,99.90
2018-06-22T19:46:19.590Z,99.90
2018-06-22T19:48:53.525Z,99.90
2018-06-22T19:51:36.400Z,99.90
2018-06-22T19:54:07.265Z,99.90
2018-06-22T19:56:36.272Z,99.90
2018-06-22T19:59:04.973Z,99.90
2018-06-22T20:01:33.404Z,99.90
2018-06-22T20:04:02.054Z,99.90
2018-06-22T20:06:30.643Z,99.90
2018-06-22T20:08:59.212Z,99.90
2018-06-22T20:11:27.881Z,99.90
2018-06-22T20:13:57.016Z,99.90
2018-06-22T20:16:25.833Z,99.90
2018-06-22T20:18:54.472Z,99.90
2018-06-22T20:21:22.901Z,99.90
2018-06-22T20:23:51.432Z,99.90
2018-06-22T20:26:20.113Z,99.90
2018-06-22T20:28:48.732Z,99.90
2018-06-22T20:31:22.779Z,99.90
2018-06-22T20:33:51.300Z,99.90
2018-06-22T20:36:25.214Z,99.90
2018-06-22T20:38:59.198Z,99.90
2018-06-22T20:41:33.208Z,99.90
2018-06-22T20:44:07.112Z,99.90
2018-06-22T20:46:41.174Z,99.90
2018-06-22T20:49:14.944Z,99.90
2018-06-22T20:51:44.705Z,99.90
2018-06-22T20:54:14.072Z,99.90
2018-06-22T20:56:42.441Z,99.90
2018-06-22T20:59:11.090Z,99.90
2018-06-22T21:01:39.712Z,99.90
2018-06-22T21:04:08.103Z,99.90
2018-06-22T21:06:36.792Z,99.90
2018-06-22T21:09:07.349Z,99.90
2018-06-22T21:11:35.775Z,99.90
2018-06-22T21:14:04.610Z,99.90
2018-06-22T21:16:33.733Z,99.90
2018-06-22T21:19:02.313Z,99.90
2018-06-22T21:21:36.963Z,99.90
2018-06-22T21:24:07.615Z,99.90
2018-06-22T21:26:36.898Z,99.90
2018-06-22T21:29:11.050Z,99.90
2018-06-22T21:31:45.447Z,99.90
2018-06-22T21:34:19.125Z,99.90
2018-06-22T21:36:53.233Z,99.90
2018-06-22T21:39:22.121Z,99.90
2018-06-22T21:41:50.581Z,99.90
2018-06-22T21:44:19.302Z,99.90
2018-06-22T21:46:47.728Z,99.90
2018-06-22T21:49:16.583Z,99.90
2018-06-22T21:51:45.059Z,99.90
2018-06-22T21:54:13.865Z,99.90
2018-06-22T21:56:42.300Z,99.90
2018-06-22T21:59:10.772Z,99.90
2018-06-22T22:01:39.216Z,99.90
2018-06-22T22:04:07.848Z,99.90
2018-06-22T22:06:36.817Z,99.90
2018-06-22T22:09:07.900Z,99.90
2018-06-22T22:11:42.679Z,99.90
2018-06-22T22:14:11.725Z,99.90
2018-06-22T22:16:41.457Z,99.90
2018-06-22T22:19:10.779Z,99.90
2018-06-22T22:21:39.800Z,99.90
2018-06-22T22:24:08.354Z,99.90
2018-06-22T22:26:37.030Z,99.90
2018-06-22T22:29:06.281Z,99.90
2018-06-22T22:31:34.828Z,99.90
2018-06-22T22:34:03.297Z,99.90
2018-06-22T22:36:32.051Z,99.90
2018-06-22T22:41:29.109Z,99.90
2018-06-22T22:43:57.609Z,99.90
2018-06-22T22:46:25.984Z,99.90
2018-06-22T22:48:54.752Z,99.90
2018-06-22T22:51:23.107Z,99.90
2018-06-22T22:53:52.352Z,99.90
2018-06-22T22:56:20.960Z,99.90
2018-06-22T22:58:49.332Z,99.90
2018-06-22T23:01:17.701Z,99.90
2018-06-22T23:03:46.144Z,99.90
2018-06-22T23:06:14.564Z,99.90
2018-06-22T23:08:42.981Z,99.90
2018-06-22T23:11:11.717Z,99.90
2018-06-22T23:13:40.064Z,99.90
2018-06-22T23:16:08.525Z,99.90
2018-06-22T23:18:37.102Z,99.90
2018-06-22T23:21:05.512Z,99.90
2018-06-22T23:23:36.900Z,99.90
2018-06-22T23:26:05.744Z,99.90
2018-06-22T23:28:34.165Z,99.90
2018-06-22T23:31:03.965Z,99.90
2018-06-22T23:33:32.784Z,99.90
2018-06-22T23:36:02.153Z,99.90
2018-06-22T23:38:31.089Z,99.90
2018-06-22T23:40:59.460Z,99.90
2018-06-22T23:43:28.327Z,99.90
2018-06-22T23:45:56.797Z,99.90
2018-06-22T23:48:25.138Z,99.90
2018-06-22T23:50:53.609Z,99.90
2018-06-22T23:53:22.628Z,99.90
